sensor_id;sensor_type;location;lat;lon;timestamp;P1;durP1;ratioP1;P2;durP2;ratioP2
10162;SDS011;5123;52.556;13.384;2023-06-19T00:00:20;13.90;;;12.60;;
10162;SDS011;5123;52.556;13.384;2023-06-19T00:02:53;14.23;;;12.93;;
10162;SDS011;5123;52.556;13.384;2023-06-19T00:05:26;14.60;;;13.10;;
10162;SDS011;5123;52.556;13.384;2023-06-19T00:07:59;14.77;;;13.37;;
10162;SDS011;5123;52.556;13.384;2023-06-19T00:10:33;14.63;;;13.13;;
10162;SDS011;5123;52.556;13.384;2023-06-19T00:13:06;13.67;;;12.10;;
10162;SDS011;5123;52.556;13.384;2023-06-19T00:15:39;14.07;;;12.80;;
10162;SDS011;5123;52.556;13.384;2023-06-19T00:18:12;13.10;;;11.40;;
10162;SDS011;5123;52.556;13.384;2023-06-19T00:20:47;12.57;;;11.40;;
10162;SDS011;5123;52.556;13.384;2023-06-19T00:23:20;12.07;;;10.93;;
10162;SDS011;5123;52.556;13.384;2023-06-19T00:25:54;12.93;;;11.73;;
10162;SDS011;5123;52.556;13.384;2023-06-19T00:28:27;12.57;;;11.47;;
10162;SDS011;5123;52.556;13.384;2023-06-19T00:31:00;11.13;;;10.20;;
10162;SDS011;5123;52.556;13.384;2023-06-19T00:33:38;12.20;;;11.20;;
10162;SDS011;5123;52.556;13.384;2023-06-19T00:36:10;11.73;;;10.73;;
10162;SDS011;5123;52.556;13.384;2023-06-19T00:38:43;12.87;;;11.67;;
10162;SDS011;5123;52.556;13.384;2023-06-19T00:41:18;14.27;;;10.93;;
10162;SDS011;5123;52.556;13.384;2023-06-19T00:43:51;12.47;;;11.37;;
10162;SDS011;5123;52.556;13.384;2023-06-19T00:46:28;13.90;;;12.67;;
10162;SDS011;5123;52.556;13.384;2023-06-19T00:49:01;13.40;;;11.37;;
10162;SDS011;5123;52.556;13.384;2023-06-19T00:51:34;11.77;;;10.67;;
10162;SDS011;5123;52.556;13.384;2023-06-19T00:54:07;12.70;;;11.60;;
10162;SDS011;5123;52.556;13.384;2023-06-19T00:56:43;11.77;;;10.73;;
10162;SDS011;5123;52.556;13.384;2023-06-19T00:59:17;12.20;;;11.20;;
10162;SDS011;5123;52.556;13.384;2023-06-19T01:01:50;13.17;;;11.87;;
10162;SDS011;5123;52.556;13.384;2023-06-19T01:04:26;12.33;;;11.13;;
10162;SDS011;5123;52.556;13.384;2023-06-19T01:07:00;13.03;;;11.93;;
10162;SDS011;5123;52.556;13.384;2023-06-19T01:09:40;12.53;;;11.50;;
10162;SDS011;5123;52.556;13.384;2023-06-19T01:12:16;13.40;;;12.17;;
10162;SDS011;5123;52.556;13.384;2023-06-19T01:14:54;13.60;;;12.23;;
10162;SDS011;5123;52.556;13.384;2023-06-19T01:17:27;12.77;;;11.67;;
10162;SDS011;5123;52.556;13.384;2023-06-19T01:20:00;13.07;;;11.93;;
10162;SDS011;5123;52.556;13.384;2023-06-19T01:22:44;12.67;;;11.57;;
10162;SDS011;5123;52.556;13.384;2023-06-19T01:25:16;13.83;;;12.63;;
10162;SDS011;5123;52.556;13.384;2023-06-19T01:27:49;13.60;;;12.40;;
10162;SDS011;5123;52.556;13.384;2023-06-19T01:30:22;13.40;;;12.20;;
10162;SDS011;5123;52.556;13.384;2023-06-19T01:32:56;14.00;;;12.77;;
10162;SDS011;5123;52.556;13.384;2023-06-19T01:35:33;14.30;;;12.93;;
10162;SDS011;5123;52.556;13.384;2023-06-19T01:38:08;14.13;;;13.03;;
10162;SDS011;5123;52.556;13.384;2023-06-19T01:40:41;14.77;;;13.47;;
10162;SDS011;5123;52.556;13.384;2023-06-19T01:43:14;14.03;;;12.77;;
10162;SDS011;5123;52.556;13.384;2023-06-19T01:45:48;14.23;;;12.73;;
10162;SDS011;5123;52.556;13.384;2023-06-19T01:48:21;14.60;;;13.10;;
10162;SDS011;5123;52.556;13.384;2023-06-19T01:50:54;12.87;;;11.87;;
10162;SDS011;5123;52.556;13.384;2023-06-19T01:53:28;14.53;;;13.27;;
10162;SDS011;5123;52.556;13.384;2023-06-19T01:56:02;14.13;;;12.93;;
10162;SDS011;5123;52.556;13.384;2023-06-19T01:58:35;14.93;;;13.63;;
10162;SDS011;5123;52.556;13.384;2023-06-19T02:01:08;13.83;;;12.43;;
10162;SDS011;5123;52.556;13.384;2023-06-19T02:03:41;14.87;;;13.03;;
10162;SDS011;5123;52.556;13.384;2023-06-19T02:06:13;14.20;;;12.70;;
10162;SDS011;5123;52.556;13.384;2023-06-19T02:08:48;14.17;;;12.90;;
10162;SDS011;5123;52.556;13.384;2023-06-19T02:11:20;15.23;;;13.73;;
10162;SDS011;5123;52.556;13.384;2023-06-19T02:13:53;13.77;;;12.50;;
10162;SDS011;5123;52.556;13.384;2023-06-19T02:16:26;14.27;;;13.07;;
10162;SDS011;5123;52.556;13.384;2023-06-19T02:18:58;14.77;;;13.47;;
10162;SDS011;5123;52.556;13.384;2023-06-19T02:21:31;14.37;;;13.00;;
10162;SDS011;5123;52.556;13.384;2023-06-19T02:24:06;14.83;;;13.60;;
10162;SDS011;5123;52.556;13.384;2023-06-19T02:26:39;15.70;;;14.27;;
10162;SDS011;5123;52.556;13.384;2023-06-19T02:29:12;14.10;;;12.80;;
10162;SDS011;5123;52.556;13.384;2023-06-19T02:31:44;13.87;;;12.77;;
10162;SDS011;5123;52.556;13.384;2023-06-19T02:34:17;14.40;;;13.20;;
10162;SDS011;5123;52.556;13.384;2023-06-19T02:36:50;14.73;;;13.43;;
10162;SDS011;5123;52.556;13.384;2023-06-19T02:39:26;14.13;;;12.67;;
10162;SDS011;5123;52.556;13.384;2023-06-19T02:41:59;14.17;;;12.87;;
10162;SDS011;5123;52.556;13.384;2023-06-19T02:44:32;14.77;;;13.50;;
10162;SDS011;5123;52.556;13.384;2023-06-19T02:47:07;15.37;;;13.87;;
10162;SDS011;5123;52.556;13.384;2023-06-19T02:49:40;15.57;;;14.07;;
10162;SDS011;5123;52.556;13.384;2023-06-19T02:52:13;15.07;;;13.70;;
10162;SDS011;5123;52.556;13.384;2023-06-19T02:54:47;14.37;;;13.17;;
10162;SDS011;5123;52.556;13.384;2023-06-19T02:57:20;14.03;;;12.83;;
10162;SDS011;5123;52.556;13.384;2023-06-19T02:59:53;14.93;;;13.53;;
10162;SDS011;5123;52.556;13.384;2023-06-19T03:02:25;15.90;;;14.23;;
10162;SDS011;5123;52.556;13.384;2023-06-19T03:04:58;14.57;;;13.37;;
10162;SDS011;5123;52.556;13.384;2023-06-19T03:07:31;13.97;;;12.83;;
10162;SDS011;5123;52.556;13.384;2023-06-19T03:10:06;15.73;;;14.20;;
10162;SDS011;5123;52.556;13.384;2023-06-19T03:12:39;14.53;;;13.30;;
10162;SDS011;5123;52.556;13.384;2023-06-19T03:15:12;14.57;;;13.27;;
10162;SDS011;5123;52.556;13.384;2023-06-19T03:17:45;14.97;;;13.67;;
10162;SDS011;5123;52.556;13.384;2023-06-19T03:20:18;15.50;;;14.10;;
10162;SDS011;5123;52.556;13.384;2023-06-19T03:22:52;14.47;;;13.27;;
10162;SDS011;5123;52.556;13.384;2023-06-19T03:25:26;14.70;;;13.40;;
10162;SDS011;5123;52.556;13.384;2023-06-19T03:28:06;14.93;;;13.63;;
10162;SDS011;5123;52.556;13.384;2023-06-19T03:30:39;14.87;;;13.47;;
10162;SDS011;5123;52.556;13.384;2023-06-19T03:33:12;14.80;;;13.53;;
10162;SDS011;5123;52.556;13.384;2023-06-19T03:35:44;13.83;;;12.53;;
10162;SDS011;5123;52.556;13.384;2023-06-19T03:38:17;15.07;;;13.77;;
10162;SDS011;5123;52.556;13.384;2023-06-19T03:40:51;14.63;;;13.23;;
10162;SDS011;5123;52.556;13.384;2023-06-19T03:43:24;14.03;;;12.77;;
10162;SDS011;5123;52.556;13.384;2023-06-19T03:46:01;15.13;;;13.73;;
10162;SDS011;5123;52.556;13.384;2023-06-19T03:48:34;14.57;;;13.23;;
10162;SDS011;5123;52.556;13.384;2023-06-19T03:51:07;15.87;;;14.37;;
10162;SDS011;5123;52.556;13.384;2023-06-19T03:53:42;14.90;;;13.60;;
10162;SDS011;5123;52.556;13.384;2023-06-19T03:56:16;15.33;;;14.00;;
10162;SDS011;5123;52.556;13.384;2023-06-19T03:58:49;15.47;;;14.07;;
10162;SDS011;5123;52.556;13.384;2023-06-19T04:01:25;14.47;;;13.23;;
10162;SDS011;5123;52.556;13.384;2023-06-19T04:03:58;14.80;;;13.50;;
10162;SDS011;5123;52.556;13.384;2023-06-19T04:06:33;14.97;;;13.67;;
10162;SDS011;5123;52.556;13.384;2023-06-19T04:09:06;14.50;;;13.30;;
10162;SDS011;5123;52.556;13.384;2023-06-19T04:11:40;13.50;;;12.40;;
10162;SDS011;5123;52.556;13.384;2023-06-19T04:14:16;14.37;;;13.17;;
10162;SDS011;5123;52.556;13.384;2023-06-19T04:16:49;13.63;;;12.53;;
10162;SDS011;5123;52.556;13.384;2023-06-19T04:19:24;15.20;;;13.80;;
10162;SDS011;5123;52.556;13.384;2023-06-19T04:22:11;14.27;;;13.00;;
10162;SDS011;5123;52.556;13.384;2023-06-19T04:24:43;14.03;;;12.83;;
10162;SDS011;5123;52.556;13.384;2023-06-19T04:27:18;14.77;;;13.57;;
10162;SDS011;5123;52.556;13.384;2023-06-19T04:29:51;14.97;;;13.67;;
10162;SDS011;5123;52.556;13.384;2023-06-19T04:32:24;14.17;;;12.97;;
10162;SDS011;5123;52.556;13.384;2023-06-19T04:34:57;15.27;;;13.97;;
10162;SDS011;5123;52.556;13.384;2023-06-19T04:37:32;15.27;;;13.77;;
10162;SDS011;5123;52.556;13.384;2023-06-19T04:40:05;15.37;;;13.97;;
10162;SDS011;5123;52.556;13.384;2023-06-19T04:42:40;15.57;;;14.17;;
10162;SDS011;5123;52.556;13.384;2023-06-19T04:45:15;15.40;;;14.10;;
10162;SDS011;5123;52.556;13.384;2023-06-19T04:47:48;17.50;;;15.73;;
10162;SDS011;5123;52.556;13.384;2023-06-19T04:50:24;14.97;;;13.67;;
10162;SDS011;5123;52.556;13.384;2023-06-19T04:52:57;16.67;;;15.00;;
10162;SDS011;5123;52.556;13.384;2023-06-19T04:55:33;16.07;;;14.70;;
10162;SDS011;5123;52.556;13.384;2023-06-19T04:58:07;17.00;;;15.13;;
10162;SDS011;5123;52.556;13.384;2023-06-19T05:00:39;15.47;;;14.20;;
10162;SDS011;5123;52.556;13.384;2023-06-19T05:03:12;15.90;;;14.43;;
10162;SDS011;5123;52.556;13.384;2023-06-19T05:05:45;16.03;;;14.47;;
10162;SDS011;5123;52.556;13.384;2023-06-19T05:08:18;17.03;;;15.43;;
10162;SDS011;5123;52.556;13.384;2023-06-19T05:10:53;15.60;;;14.10;;
10162;SDS011;5123;52.556;13.384;2023-06-19T05:13:27;16.33;;;14.93;;
10162;SDS011;5123;52.556;13.384;2023-06-19T05:16:00;16.27;;;14.73;;
10162;SDS011;5123;52.556;13.384;2023-06-19T05:18:33;15.80;;;14.30;;
10162;SDS011;5123;52.556;13.384;2023-06-19T05:21:13;15.67;;;14.37;;
10162;SDS011;5123;52.556;13.384;2023-06-19T05:23:46;15.40;;;14.00;;
10162;SDS011;5123;52.556;13.384;2023-06-19T05:26:21;15.27;;;13.77;;
10162;SDS011;5123;52.556;13.384;2023-06-19T05:28:56;15.43;;;14.03;;
10162;SDS011;5123;52.556;13.384;2023-06-19T05:31:28;16.23;;;14.83;;
10162;SDS011;5123;52.556;13.384;2023-06-19T05:34:01;15.93;;;14.53;;
10162;SDS011;5123;52.556;13.384;2023-06-19T05:36:34;16.00;;;14.57;;
10162;SDS011;5123;52.556;13.384;2023-06-19T05:39:07;16.43;;;14.73;;
10162;SDS011;5123;52.556;13.384;2023-06-19T05:41:42;16.63;;;15.23;;
10162;SDS011;5123;52.556;13.384;2023-06-19T05:44:18;16.27;;;14.77;;
10162;SDS011;5123;52.556;13.384;2023-06-19T05:46:51;15.93;;;14.60;;
10162;SDS011;5123;52.556;13.384;2023-06-19T05:49:23;15.60;;;14.00;;
10162;SDS011;5123;52.556;13.384;2023-06-19T05:51:56;16.30;;;14.80;;
10162;SDS011;5123;52.556;13.384;2023-06-19T05:54:30;17.83;;;14.90;;
10162;SDS011;5123;52.556;13.384;2023-06-19T05:57:05;15.77;;;14.47;;
10162;SDS011;5123;52.556;13.384;2023-06-19T05:59:40;16.80;;;15.10;;
10162;SDS011;5123;52.556;13.384;2023-06-19T06:02:13;17.27;;;15.67;;
10162;SDS011;5123;52.556;13.384;2023-06-19T06:04:46;16.67;;;15.07;;
10162;SDS011;5123;52.556;13.384;2023-06-19T06:07:19;16.67;;;15.07;;
10162;SDS011;5123;52.556;13.384;2023-06-19T06:09:52;17.27;;;15.77;;
10162;SDS011;5123;52.556;13.384;2023-06-19T06:12:25;16.63;;;15.17;;
10162;SDS011;5123;52.556;13.384;2023-06-19T06:15:00;17.30;;;15.70;;
10162;SDS011;5123;52.556;13.384;2023-06-19T06:17:33;16.23;;;14.43;;
10162;SDS011;5123;52.556;13.384;2023-06-19T06:20:06;17.20;;;15.60;;
10162;SDS011;5123;52.556;13.384;2023-06-19T06:22:43;17.17;;;15.67;;
10162;SDS011;5123;52.556;13.384;2023-06-19T06:25:16;17.37;;;15.87;;
10162;SDS011;5123;52.556;13.384;2023-06-19T06:27:49;16.47;;;14.97;;
10162;SDS011;5123;52.556;13.384;2023-06-19T06:30:23;19.50;;;16.17;;
10162;SDS011;5123;52.556;13.384;2023-06-19T06:32:56;17.03;;;15.50;;
10162;SDS011;5123;52.556;13.384;2023-06-19T06:35:29;17.70;;;16.10;;
10162;SDS011;5123;52.556;13.384;2023-06-19T06:38:02;17.10;;;15.53;;
10162;SDS011;5123;52.556;13.384;2023-06-19T06:40:35;18.43;;;15.03;;
10162;SDS011;5123;52.556;13.384;2023-06-19T06:43:07;16.47;;;15.07;;
10162;SDS011;5123;52.556;13.384;2023-06-19T06:45:42;16.60;;;15.20;;
10162;SDS011;5123;52.556;13.384;2023-06-19T06:48:14;16.90;;;15.30;;
10162;SDS011;5123;52.556;13.384;2023-06-19T06:50:48;17.23;;;15.60;;
10162;SDS011;5123;52.556;13.384;2023-06-19T06:53:20;16.57;;;15.17;;
10162;SDS011;5123;52.556;13.384;2023-06-19T06:55:53;17.17;;;15.67;;
10162;SDS011;5123;52.556;13.384;2023-06-19T06:58:29;16.63;;;15.03;;
10162;SDS011;5123;52.556;13.384;2023-06-19T07:01:03;16.63;;;15.03;;
10162;SDS011;5123;52.556;13.384;2023-06-19T07:03:35;16.57;;;14.77;;
10162;SDS011;5123;52.556;13.384;2023-06-19T07:06:08;17.33;;;15.73;;
10162;SDS011;5123;52.556;13.384;2023-06-19T07:08:42;16.20;;;14.70;;
10162;SDS011;5123;52.556;13.384;2023-06-19T07:11:21;16.87;;;15.20;;
10162;SDS011;5123;52.556;13.384;2023-06-19T07:13:53;18.83;;;15.87;;
10162;SDS011;5123;52.556;13.384;2023-06-19T07:16:27;19.53;;;16.70;;
10162;SDS011;5123;52.556;13.384;2023-06-19T07:19:00;18.40;;;16.60;;
10162;SDS011;5123;52.556;13.384;2023-06-19T07:21:33;17.43;;;15.93;;
10162;SDS011;5123;52.556;13.384;2023-06-19T07:24:06;19.13;;;17.23;;
10162;SDS011;5123;52.556;13.384;2023-06-19T07:26:39;18.50;;;16.73;;
10162;SDS011;5123;52.556;13.384;2023-06-19T07:29:15;17.30;;;15.60;;
10162;SDS011;5123;52.556;13.384;2023-06-19T07:31:55;16.77;;;15.07;;
10162;SDS011;5123;52.556;13.384;2023-06-19T07:34:27;21.10;;;16.80;;
10162;SDS011;5123;52.556;13.384;2023-06-19T07:37:00;18.40;;;16.47;;
10162;SDS011;5123;52.556;13.384;2023-06-19T07:39:33;21.57;;;15.70;;
10162;SDS011;5123;52.556;13.384;2023-06-19T07:42:16;16.60;;;14.97;;
10162;SDS011;5123;52.556;13.384;2023-06-19T07:44:49;16.53;;;14.73;;
10162;SDS011;5123;52.556;13.384;2023-06-19T07:47:23;17.40;;;15.57;;
10162;SDS011;5123;52.556;13.384;2023-06-19T07:49:58;19.20;;;15.37;;
10162;SDS011;5123;52.556;13.384;2023-06-19T07:52:31;18.47;;;15.17;;
10162;SDS011;5123;52.556;13.384;2023-06-19T07:55:05;17.93;;;14.33;;
10162;SDS011;5123;52.556;13.384;2023-06-19T07:57:37;16.80;;;15.03;;
10162;SDS011;5123;52.556;13.384;2023-06-19T08:00:11;22.13;;;15.30;;
10162;SDS011;5123;52.556;13.384;2023-06-19T08:02:45;20.40;;;15.53;;
10162;SDS011;5123;52.556;13.384;2023-06-19T08:05:18;18.10;;;16.30;;
10162;SDS011;5123;52.556;13.384;2023-06-19T08:07:51;17.23;;;15.07;;
10162;SDS011;5123;52.556;13.384;2023-06-19T08:10:26;17.60;;;14.90;;
10162;SDS011;5123;52.556;13.384;2023-06-19T08:12:59;17.13;;;14.60;;
10162;SDS011;5123;52.556;13.384;2023-06-19T08:15:32;17.47;;;14.67;;
10162;SDS011;5123;52.556;13.384;2023-06-19T08:18:06;22.63;;;15.00;;
10162;SDS011;5123;52.556;13.384;2023-06-19T08:20:41;17.37;;;14.90;;
10162;SDS011;5123;52.556;13.384;2023-06-19T08:23:14;16.20;;;14.70;;
10162;SDS011;5123;52.556;13.384;2023-06-19T08:25:46;16.00;;;14.53;;
10162;SDS011;5123;52.556;13.384;2023-06-19T08:28:19;16.90;;;15.40;;
10162;SDS011;5123;52.556;13.384;2023-06-19T08:30:52;17.47;;;14.87;;
10162;SDS011;5123;52.556;13.384;2023-06-19T08:33:26;15.63;;;14.03;;
10162;SDS011;5123;52.556;13.384;2023-06-19T08:35:59;19.83;;;16.63;;
10162;SDS011;5123;52.556;13.384;2023-06-19T08:38:31;19.03;;;15.80;;
10162;SDS011;5123;52.556;13.384;2023-06-19T08:41:05;17.87;;;15.53;;
10162;SDS011;5123;52.556;13.384;2023-06-19T08:43:38;17.43;;;15.07;;
10162;SDS011;5123;52.556;13.384;2023-06-19T08:46:16;19.10;;;15.77;;
10162;SDS011;5123;52.556;13.384;2023-06-19T08:48:54;28.57;;;22.47;;
10162;SDS011;5123;52.556;13.384;2023-06-19T08:51:31;20.77;;;18.60;;
10162;SDS011;5123;52.556;13.384;2023-06-19T08:54:04;24.27;;;16.03;;
10162;SDS011;5123;52.556;13.384;2023-06-19T08:56:39;30.03;;;17.73;;
10162;SDS011;5123;52.556;13.384;2023-06-19T08:59:15;24.50;;;16.77;;
10162;SDS011;5123;52.556;13.384;2023-06-19T09:01:49;27.47;;;18.53;;
10162;SDS011;5123;52.556;13.384;2023-06-19T09:04:26;18.37;;;16.47;;
10162;SDS011;5123;52.556;13.384;2023-06-19T09:07:00;22.20;;;16.80;;
10162;SDS011;5123;52.556;13.384;2023-06-19T09:09:34;21.07;;;16.20;;
10162;SDS011;5123;52.556;13.384;2023-06-19T09:12:08;22.40;;;15.77;;
10162;SDS011;5123;52.556;13.384;2023-06-19T09:14:43;22.93;;;16.37;;
10162;SDS011;5123;52.556;13.384;2023-06-19T09:17:17;16.77;;;14.97;;
10162;SDS011;5123;52.556;13.384;2023-06-19T09:19:53;19.90;;;16.20;;
10162;SDS011;5123;52.556;13.384;2023-06-19T09:22:28;15.70;;;14.13;;
10162;SDS011;5123;52.556;13.384;2023-06-19T09:25:03;29.97;;;17.60;;
10162;SDS011;5123;52.556;13.384;2023-06-19T09:27:38;23.43;;;16.13;;
10162;SDS011;5123;52.556;13.384;2023-06-19T09:30:14;18.40;;;16.50;;
10162;SDS011;5123;52.556;13.384;2023-06-19T09:32:47;21.70;;;19.63;;
10162;SDS011;5123;52.556;13.384;2023-06-19T09:35:21;43.67;;;30.63;;
10162;SDS011;5123;52.556;13.384;2023-06-19T09:37:54;39.03;;;34.93;;
10162;SDS011;5123;52.556;13.384;2023-06-19T09:40:27;25.20;;;22.60;;
10162;SDS011;5123;52.556;13.384;2023-06-19T09:43:00;20.03;;;18.03;;
10162;SDS011;5123;52.556;13.384;2023-06-19T09:45:34;17.23;;;15.40;;
10162;SDS011;5123;52.556;13.384;2023-06-19T09:48:06;16.90;;;15.30;;
10162;SDS011;5123;52.556;13.384;2023-06-19T09:50:46;16.47;;;14.83;;
10162;SDS011;5123;52.556;13.384;2023-06-19T09:53:20;16.20;;;14.70;;
10162;SDS011;5123;52.556;13.384;2023-06-19T09:55:55;16.77;;;14.97;;
10162;SDS011;5123;52.556;13.384;2023-06-19T09:58:27;16.27;;;14.47;;
10162;SDS011;5123;52.556;13.384;2023-06-19T10:01:02;17.37;;;14.70;;
10162;SDS011;5123;52.556;13.384;2023-06-19T10:03:36;23.80;;;14.40;;
10162;SDS011;5123;52.556;13.384;2023-06-19T10:06:12;23.90;;;15.90;;
10162;SDS011;5123;52.556;13.384;2023-06-19T10:08:46;20.80;;;15.07;;
10162;SDS011;5123;52.556;13.384;2023-06-19T10:11:19;15.97;;;14.17;;
10162;SDS011;5123;52.556;13.384;2023-06-19T10:13:52;16.47;;;15.07;;
10162;SDS011;5123;52.556;13.384;2023-06-19T10:16:25;15.90;;;14.50;;
10162;SDS011;5123;52.556;13.384;2023-06-19T10:19:10;16.50;;;15.00;;
10162;SDS011;5123;52.556;13.384;2023-06-19T10:21:45;17.33;;;15.73;;
10162;SDS011;5123;52.556;13.384;2023-06-19T10:24:19;19.23;;;17.43;;
10162;SDS011;5123;52.556;13.384;2023-06-19T10:26:56;16.67;;;15.18;;
10162;SDS011;5123;52.556;13.384;2023-06-19T10:29:37;16.13;;;14.63;;
10162;SDS011;5123;52.556;13.384;2023-06-19T10:32:11;16.23;;;14.80;;
10162;SDS011;5123;52.556;13.384;2023-06-19T10:34:45;15.97;;;14.47;;
10162;SDS011;5123;52.556;13.384;2023-06-19T10:37:20;16.60;;;14.97;;
10162;SDS011;5123;52.556;13.384;2023-06-19T10:40:04;18.85;;;17.15;;
10162;SDS011;5123;52.556;13.384;2023-06-19T10:42:43;17.07;;;14.70;;
10162;SDS011;5123;52.556;13.384;2023-06-19T10:45:16;14.77;;;13.57;;
10162;SDS011;5123;52.556;13.384;2023-06-19T10:47:49;16.00;;;14.70;;
10162;SDS011;5123;52.556;13.384;2023-06-19T10:50:24;18.17;;;16.30;;
10162;SDS011;5123;52.556;13.384;2023-06-19T10:52:58;17.10;;;15.50;;
10162;SDS011;5123;52.556;13.384;2023-06-19T10:55:31;15.93;;;14.53;;
10162;SDS011;5123;52.556;13.384;2023-06-19T10:58:07;15.93;;;14.52;;
10162;SDS011;5123;52.556;13.384;2023-06-19T11:00:39;15.60;;;14.10;;
10162;SDS011;5123;52.556;13.384;2023-06-19T11:03:15;15.77;;;14.32;;
10162;SDS011;5123;52.556;13.384;2023-06-19T11:05:48;15.93;;;14.43;;
10162;SDS011;5123;52.556;13.384;2023-06-19T11:08:22;15.40;;;14.10;;
10162;SDS011;5123;52.556;13.384;2023-06-19T11:10:55;15.75;;;14.35;;
10162;SDS011;5123;52.556;13.384;2023-06-19T11:13:28;14.40;;;13.15;;
10162;SDS011;5123;52.556;13.384;2023-06-19T11:16:01;15.48;;;14.15;;
10162;SDS011;5123;52.556;13.384;2023-06-19T11:18:34;14.60;;;13.30;;
10162;SDS011;5123;52.556;13.384;2023-06-19T11:21:07;15.40;;;13.88;;
10162;SDS011;5123;52.556;13.384;2023-06-19T11:23:47;15.18;;;13.70;;
10162;SDS011;5123;52.556;13.384;2023-06-19T11:26:20;14.75;;;13.38;;
10162;SDS011;5123;52.556;13.384;2023-06-19T11:28:56;15.13;;;13.73;;
10162;SDS011;5123;52.556;13.384;2023-06-19T11:31:29;14.25;;;12.70;;
10162;SDS011;5123;52.556;13.384;2023-06-19T11:34:02;14.57;;;13.18;;
10162;SDS011;5123;52.556;13.384;2023-06-19T11:36:36;15.02;;;13.60;;
10162;SDS011;5123;52.556;13.384;2023-06-19T11:39:15;14.07;;;12.80;;
10162;SDS011;5123;52.556;13.384;2023-06-19T11:41:48;14.38;;;13.13;;
10162;SDS011;5123;52.556;13.384;2023-06-19T11:44:28;14.27;;;13.02;;
10162;SDS011;5123;52.556;13.384;2023-06-19T11:47:01;14.20;;;12.90;;
10162;SDS011;5123;52.556;13.384;2023-06-19T11:49:35;13.48;;;12.35;;
10162;SDS011;5123;52.556;13.384;2023-06-19T11:52:11;15.10;;;13.60;;
10162;SDS011;5123;52.556;13.384;2023-06-19T11:54:45;13.82;;;12.43;;
10162;SDS011;5123;52.556;13.384;2023-06-19T11:57:18;13.73;;;12.48;;
10162;SDS011;5123;52.556;13.384;2023-06-19T11:59:51;14.38;;;12.93;;
10162;SDS011;5123;52.556;13.384;2023-06-19T12:02:24;14.93;;;13.63;;
10162;SDS011;5123;52.556;13.384;2023-06-19T12:04:57;14.65;;;13.40;;
10162;SDS011;5123;52.556;13.384;2023-06-19T12:07:29;13.50;;;12.40;;
10162;SDS011;5123;52.556;13.384;2023-06-19T12:10:04;14.38;;;12.98;;
10162;SDS011;5123;52.556;13.384;2023-06-19T12:12:43;14.68;;;13.00;;
10162;SDS011;5123;52.556;13.384;2023-06-19T12:15:16;14.32;;;12.85;;
10162;SDS011;5123;52.556;13.384;2023-06-19T12:17:48;13.80;;;12.45;;
10162;SDS011;5123;52.556;13.384;2023-06-19T12:20:21;13.95;;;12.65;;
10162;SDS011;5123;52.556;13.384;2023-06-19T12:22:55;14.05;;;12.65;;
10162;SDS011;5123;52.556;13.384;2023-06-19T12:25:29;12.27;;;10.90;;
10162;SDS011;5123;52.556;13.384;2023-06-19T12:28:02;12.68;;;11.55;;
10162;SDS011;5123;52.556;13.384;2023-06-19T12:30:36;12.95;;;11.82;;
10162;SDS011;5123;52.556;13.384;2023-06-19T12:33:14;14.57;;;13.27;;
10162;SDS011;5123;52.556;13.384;2023-06-19T12:35:47;13.90;;;12.55;;
10162;SDS011;5123;52.556;13.384;2023-06-19T12:38:19;13.60;;;12.40;;
10162;SDS011;5123;52.556;13.384;2023-06-19T12:40:54;11.88;;;10.88;;
10162;SDS011;5123;52.556;13.384;2023-06-19T12:43:26;12.75;;;11.65;;
10162;SDS011;5123;52.556;13.384;2023-06-19T12:45:59;12.70;;;11.57;;
10162;SDS011;5123;52.556;13.384;2023-06-19T12:48:33;16.23;;;14.77;;
10162;SDS011;5123;52.556;13.384;2023-06-19T12:51:05;14.05;;;12.57;;
10162;SDS011;5123;52.556;13.384;2023-06-19T12:53:41;13.98;;;11.30;;
10162;SDS011;5123;52.556;13.384;2023-06-19T12:56:16;12.35;;;11.07;;
10162;SDS011;5123;52.556;13.384;2023-06-19T12:58:49;13.00;;;11.80;;
10162;SDS011;5123;52.556;13.384;2023-06-19T13:01:22;11.50;;;10.27;;
10162;SDS011;5123;52.556;13.384;2023-06-19T13:03:55;10.93;;;9.82;;
10162;SDS011;5123;52.556;13.384;2023-06-19T13:06:28;10.90;;;9.90;;
10162;SDS011;5123;52.556;13.384;2023-06-19T13:09:01;10.57;;;9.68;;
10162;SDS011;5123;52.556;13.384;2023-06-19T13:11:39;12.10;;;11.00;;
10162;SDS011;5123;52.556;13.384;2023-06-19T13:14:11;12.48;;;11.27;;
10162;SDS011;5123;52.556;13.384;2023-06-19T13:16:44;12.10;;;10.93;;
10162;SDS011;5123;52.556;13.384;2023-06-19T13:19:17;12.15;;;11.15;;
10162;SDS011;5123;52.556;13.384;2023-06-19T13:21:51;12.32;;;11.05;;
10162;SDS011;5123;52.556;13.384;2023-06-19T13:24:23;12.98;;;11.77;;
10162;SDS011;5123;52.556;13.384;2023-06-19T13:27:00;13.07;;;11.95;;
10162;SDS011;5123;52.556;13.384;2023-06-19T13:29:33;13.88;;;12.00;;
10162;SDS011;5123;52.556;13.384;2023-06-19T13:32:06;13.52;;;12.07;;
10162;SDS011;5123;52.556;13.384;2023-06-19T13:34:39;13.35;;;11.90;;
10162;SDS011;5123;52.556;13.384;2023-06-19T13:37:11;13.35;;;12.02;;
10162;SDS011;5123;52.556;13.384;2023-06-19T13:39:44;12.75;;;11.65;;
10162;SDS011;5123;52.556;13.384;2023-06-19T13:42:19;12.05;;;11.05;;
10162;SDS011;5123;52.556;13.384;2023-06-19T13:44:51;12.45;;;11.35;;
10162;SDS011;5123;52.556;13.384;2023-06-19T13:47:24;12.27;;;11.10;;
10162;SDS011;5123;52.556;13.384;2023-06-19T13:50:00;12.25;;;11.05;;
10162;SDS011;5123;52.556;13.384;2023-06-19T13:52:33;13.23;;;12.02;;
10162;SDS011;5123;52.556;13.384;2023-06-19T13:55:05;14.05;;;12.70;;
10162;SDS011;5123;52.556;13.384;2023-06-19T13:57:40;13.98;;;12.52;;
10162;SDS011;5123;52.556;13.384;2023-06-19T14:00:13;14.02;;;12.68;;
10162;SDS011;5123;52.556;13.384;2023-06-19T14:02:46;12.93;;;11.93;;
10162;SDS011;5123;52.556;13.384;2023-06-19T14:05:20;13.80;;;12.23;;
10162;SDS011;5123;52.556;13.384;2023-06-19T14:07:52;13.10;;;11.80;;
10162;SDS011;5123;52.556;13.384;2023-06-19T14:10:26;13.32;;;12.23;;
10162;SDS011;5123;52.556;13.384;2023-06-19T14:13:01;13.63;;;12.52;;
10162;SDS011;5123;52.556;13.384;2023-06-19T14:15:33;13.18;;;12.02;;
10162;SDS011;5123;52.556;13.384;2023-06-19T14:18:06;14.23;;;13.02;;
10162;SDS011;5123;52.556;13.384;2023-06-19T14:20:40;12.80;;;11.70;;
10162;SDS011;5123;52.556;13.384;2023-06-19T14:23:13;14.35;;;13.00;;
10162;SDS011;5123;52.556;13.384;2023-06-19T14:25:46;13.73;;;12.63;;
10162;SDS011;5123;52.556;13.384;2023-06-19T14:28:20;13.43;;;12.13;;
10162;SDS011;5123;52.556;13.384;2023-06-19T14:30:53;14.35;;;13.07;;
10162;SDS011;5123;52.556;13.384;2023-06-19T14:33:26;13.55;;;12.45;;
10162;SDS011;5123;52.556;13.384;2023-06-19T14:35:58;14.30;;;13.00;;
10162;SDS011;5123;52.556;13.384;2023-06-19T14:38:33;14.30;;;13.00;;
10162;SDS011;5123;52.556;13.384;2023-06-19T14:41:05;14.63;;;13.43;;
10162;SDS011;5123;52.556;13.384;2023-06-19T14:43:40;16.17;;;14.70;;
10162;SDS011;5123;52.556;13.384;2023-06-19T14:46:13;14.65;;;13.15;;
10162;SDS011;5123;52.556;13.384;2023-06-19T14:49:06;15.23;;;13.80;;
10162;SDS011;5123;52.556;13.384;2023-06-19T14:51:39;16.17;;;13.20;;
10162;SDS011;5123;52.556;13.384;2023-06-19T14:54:11;14.40;;;12.82;;
10162;SDS011;5123;52.556;13.384;2023-06-19T14:56:45;14.60;;;13.20;;
10162;SDS011;5123;52.556;13.384;2023-06-19T14:59:21;17.08;;;15.40;;